createdAt,value
2022-12-16T00:00:11.748Z,10.15
2022-12-16T00:02:39.372Z,11.40
2022-12-16T00:05:07.105Z,10.85
2022-12-16T00:07:35.555Z,9.35
2022-12-16T00:10:03.007Z,10.33
2022-12-16T00:12:30.325Z,10.38
2022-12-16T00:14:57.836Z,12.02
2022-12-16T00:17:25.393Z,9.27
2022-12-16T00:19:52.644Z,10.10
2022-12-16T00:22:19.848Z,8.90
2022-12-16T00:24:47.293Z,9.02
2022-12-16T00:27:14.861Z,9.23
2022-12-16T00:29:42.181Z,8.73
2022-12-16T00:32:09.549Z,8.73
2022-12-16T00:34:37.018Z,8.95
2022-12-16T00:37:04.613Z,9.70
2022-12-16T00:39:31.985Z,9.70
2022-12-16T00:41:59.427Z,9.90
2022-12-16T00:44:26.895Z,10.00
2022-12-16T00:46:54.410Z,9.55
2022-12-16T00:49:22.540Z,9.15
2022-12-16T00:51:49.892Z,9.18
2022-12-16T00:54:17.956Z,10.88
2022-12-16T00:56:46.593Z,9.45
2022-12-16T00:59:14.130Z,9.60
2022-12-16T01:01:41.763Z,9.20
2022-12-16T01:04:09.358Z,8.85
2022-12-16T01:06:36.909Z,8.02
2022-12-16T01:09:04.367Z,8.98
2022-12-16T01:11:31.653Z,8.95
2022-12-16T01:13:59.560Z,9.07
2022-12-16T01:16:27.018Z,8.25
2022-12-16T01:18:56.272Z,9.60
2022-12-16T01:21:23.605Z,8.90
2022-12-16T01:23:51.086Z,9.02
2022-12-16T01:26:18.931Z,8.47
2022-12-16T01:28:48.422Z,9.98
2022-12-16T01:31:18.218Z,9.07
2022-12-16T01:33:45.882Z,9.30
2022-12-16T01:36:13.257Z,10.00
2022-12-16T01:38:42.770Z,8.80
2022-12-16T01:41:10.821Z,9.73
2022-12-16T01:43:39.234Z,9.85
2022-12-16T01:46:09.631Z,10.27
2022-12-16T01:48:40.110Z,9.00
2022-12-16T01:51:29.754Z,8.43
2022-12-16T01:53:59.737Z,8.15
2022-12-16T01:56:29.186Z,8.97
2022-12-16T01:58:57.285Z,8.23
2022-12-16T02:01:25.001Z,9.53
2022-12-16T02:03:53.648Z,9.32
2022-12-16T02:06:22.030Z,8.32
2022-12-16T02:08:52.610Z,9.20
2022-12-16T02:11:23.196Z,8.82
2022-12-16T02:14:00.701Z,9.27
2022-12-16T02:16:31.137Z,8.70
2022-12-16T02:19:10.946Z,8.30
2022-12-16T02:21:50.778Z,9.15
2022-12-16T02:24:31.602Z,8.25
2022-12-16T02:27:25.386Z,7.80
2022-12-16T02:30:13.098Z,8.48
2022-12-16T02:32:40.693Z,8.15
2022-12-16T02:35:26.570Z,8.70
2022-12-16T02:38:13.452Z,8.38
2022-12-16T02:41:00.611Z,9.15
2022-12-16T02:43:27.895Z,8.43
2022-12-16T02:45:55.359Z,8.55
2022-12-16T02:48:22.875Z,7.83
2022-12-16T02:50:51.731Z,8.67
2022-12-16T02:53:20.649Z,8.13
2022-12-16T02:56:06.625Z,7.65
2022-12-16T02:58:39.304Z,8.07
2022-12-16T03:01:14.400Z,8.45
2022-12-16T03:03:47.188Z,8.80
2022-12-16T03:06:16.400Z,8.27
2022-12-16T03:08:46.390Z,7.70
2022-12-16T03:11:14.001Z,7.60
2022-12-16T03:13:47.243Z,7.30
2022-12-16T03:16:17.359Z,7.20
2022-12-16T03:18:48.357Z,7.80
2022-12-16T03:21:16.911Z,7.00
2022-12-16T03:23:51.934Z,6.93
2022-12-16T03:26:26.823Z,7.13
2022-12-16T03:29:06.672Z,8.63
2022-12-16T03:31:46.805Z,6.97
2022-12-16T03:34:30.597Z,6.82
2022-12-16T03:37:00.989Z,6.97
2022-12-16T03:39:28.597Z,7.07
2022-12-16T03:41:56.640Z,6.75
2022-12-16T03:44:25.198Z,7.00
2022-12-16T03:46:52.780Z,6.10
2022-12-16T03:49:19.986Z,6.10
2022-12-16T03:51:47.100Z,7.43
2022-12-16T03:54:14.224Z,6.97
2022-12-16T03:56:41.374Z,7.57
2022-12-16T03:59:08.522Z,7.13
2022-12-16T04:01:35.823Z,7.40
2022-12-16T04:04:03.125Z,5.95
2022-12-16T04:06:30.319Z,6.93
2022-12-16T04:08:57.537Z,6.50
2022-12-16T04:11:43.191Z,6.40
2022-12-16T04:14:29.706Z,6.90
2022-12-16T04:17:16.118Z,6.75
2022-12-16T04:20:02.953Z,7.35
2022-12-16T04:22:50.261Z,6.23
2022-12-16T04:25:19.532Z,6.38
2022-12-16T04:27:49.567Z,5.90
2022-12-16T04:30:20.565Z,6.80
2022-12-16T04:33:23.083Z,6.25
2022-12-16T04:36:09.707Z,6.25
2022-12-16T04:38:55.628Z,6.60
2022-12-16T04:41:41.653Z,6.95
2022-12-16T04:44:27.695Z,7.88
2022-12-16T04:47:13.752Z,6.75
2022-12-16T04:50:19.279Z,7.03
2022-12-16T04:53:05.107Z,5.88
2022-12-16T04:55:51.191Z,6.10
2022-12-16T04:58:37.119Z,5.70
2022-12-16T05:01:23.059Z,6.10
2022-12-16T05:04:09.030Z,6.90
2022-12-16T05:06:55.051Z,6.80
2022-12-16T05:09:40.807Z,8.40
2022-12-16T05:12:26.533Z,6.70
2022-12-16T05:15:12.374Z,6.32
2022-12-16T05:17:58.285Z,7.45
2022-12-16T05:20:44.031Z,6.45
2022-12-16T05:23:30.302Z,7.05
2022-12-16T05:26:16.668Z,6.10
2022-12-16T05:29:02.651Z,6.63
2022-12-16T05:31:48.655Z,6.43
2022-12-16T05:34:34.557Z,6.75
2022-12-16T05:37:20.775Z,6.05
2022-12-16T05:40:06.633Z,6.57
2022-12-16T05:42:52.397Z,6.50
2022-12-16T05:45:38.179Z,7.88
2022-12-16T05:48:24.027Z,6.32
2022-12-16T05:51:10.455Z,6.53
2022-12-16T05:53:56.300Z,6.18
2022-12-16T05:56:41.907Z,7.97
2022-12-16T05:59:27.823Z,8.25
2022-12-16T06:02:14.395Z,8.35
2022-12-16T06:05:00.355Z,8.35
2022-12-16T06:07:46.307Z,8.82
2022-12-16T06:10:32.204Z,8.50
2022-12-16T06:13:18.352Z,7.28
2022-12-16T06:16:08.935Z,8.00
2022-12-16T06:18:55.412Z,7.03
2022-12-16T06:21:41.193Z,8.07
2022-12-16T06:24:27.174Z,7.05
2022-12-16T06:27:13.082Z,6.88
2022-12-16T06:29:59.077Z,7.93
2022-12-16T06:32:44.858Z,8.20
2022-12-16T06:35:30.990Z,7.47
2022-12-16T06:38:16.809Z,8.27
2022-12-16T06:41:02.495Z,7.10
2022-12-16T06:43:48.385Z,7.38
2022-12-16T06:46:34.139Z,9.30
2022-12-16T06:49:19.875Z,7.35
2022-12-16T06:52:05.851Z,7.25
2022-12-16T06:55:05.318Z,7.53
2022-12-16T06:57:51.244Z,8.30
2022-12-16T07:00:37.371Z,7.95
2022-12-16T07:03:24.188Z,9.15
2022-12-16T07:06:13.387Z,7.18
2022-12-16T07:08:59.237Z,7.82
2022-12-16T07:11:45.291Z,7.53
2022-12-16T07:14:31.297Z,8.80
2022-12-16T07:17:17.852Z,8.05
2022-12-16T07:20:04.037Z,6.90
2022-12-16T07:23:00.936Z,7.47
2022-12-16T07:25:49.970Z,7.90
2022-12-16T07:28:35.753Z,7.20
2022-12-16T07:31:21.944Z,7.85
2022-12-16T07:34:07.678Z,9.43
2022-12-16T07:36:53.378Z,7.80
2022-12-16T07:39:39.332Z,7.63
2022-12-16T07:42:25.437Z,9.98
2022-12-16T07:45:11.430Z,8.13
2022-12-16T07:47:57.552Z,8.75
2022-12-16T07:50:43.469Z,8.25
2022-12-16T07:53:31.228Z,7.80
2022-12-16T07:56:17.928Z,9.18
2022-12-16T07:59:03.776Z,8.65
2022-12-16T08:01:49.878Z,8.65
2022-12-16T08:04:36.705Z,8.10
2022-12-16T08:07:22.598Z,12.25
2022-12-16T08:10:08.595Z,9.80
2022-12-16T08:12:54.548Z,8.95
2022-12-16T08:15:40.675Z,8.70
2022-12-16T08:18:26.541Z,8.70
2022-12-16T08:21:12.297Z,8.68
2022-12-16T08:23:58.266Z,9.00
2022-12-16T08:26:44.020Z,7.50
2022-12-16T08:29:46.028Z,8.02
2022-12-16T08:32:32.521Z,8.60
2022-12-16T08:35:18.309Z,8.68
2022-12-16T08:38:10.364Z,8.60
2022-12-16T08:41:00.516Z,8.73
2022-12-16T08:43:46.270Z,7.50
2022-12-16T08:46:32.183Z,7.65
2022-12-16T08:49:17.830Z,6.60
2022-12-16T08:52:03.648Z,7.97
2022-12-16T08:54:53.849Z,7.47
2022-12-16T08:57:39.921Z,8.10
2022-12-16T09:00:26.317Z,7.88
2022-12-16T09:03:17.595Z,8.82
2022-12-16T09:06:03.955Z,8.50
2022-12-16T09:08:50.202Z,8.25
2022-12-16T09:11:36.139Z,7.85
2022-12-16T09:14:21.911Z,7.45
2022-12-16T09:17:08.024Z,7.68
2022-12-16T09:19:55.324Z,8.33
2022-12-16T09:22:41.236Z,8.68
2022-12-16T09:25:27.282Z,7.53
2022-12-16T09:28:13.249Z,8.07
2022-12-16T09:30:59.015Z,7.43
2022-12-16T09:33:44.959Z,8.52
2022-12-16T09:36:30.814Z,7.47
2022-12-16T09:39:24.297Z,7.60
2022-12-16T09:42:19.109Z,7.57
2022-12-16T09:45:05.676Z,7.70
2022-12-16T09:47:58.916Z,7.68
2022-12-16T09:50:51.680Z,7.50
2022-12-16T09:53:40.072Z,8.45
2022-12-16T09:56:37.080Z,8.35
2022-12-16T09:59:26.802Z,8.90
2022-12-16T10:02:13.205Z,7.78
2022-12-16T10:04:59.481Z,7.68
2022-12-16T10:07:48.735Z,6.93
2022-12-16T10:10:49.671Z,6.90
2022-12-16T10:13:46.925Z,7.10
2022-12-16T10:16:41.190Z,6.57
2022-12-16T10:19:37.373Z,7.40
2022-12-16T10:22:42.636Z,8.80
2022-12-16T10:25:35.175Z,7.00
2022-12-16T10:28:30.145Z,7.70
2022-12-16T10:31:16.153Z,8.07
2022-12-16T10:34:05.086Z,8.20
2022-12-16T10:36:51.421Z,8.97
2022-12-16T10:39:57.492Z,8.10
2022-12-16T10:42:46.337Z,7.93
2022-12-16T10:45:43.194Z,9.07
2022-12-16T10:48:32.713Z,9.03
2022-12-16T10:51:19.190Z,8.60
2022-12-16T10:54:06.080Z,9.60
2022-12-16T10:57:09.122Z,8.30
2022-12-16T10:59:57.621Z,8.90
2022-12-16T11:02:45.273Z,9.60
2022-12-16T11:05:43.222Z,9.93
2022-12-16T11:08:49.267Z,10.15
2022-12-16T11:11:40.897Z,8.73
2022-12-16T11:14:35.434Z,9.10
2022-12-16T11:17:38.643Z,10.20
2022-12-16T11:20:55.319Z,9.10
2022-12-16T11:23:43.065Z,9.77
2022-12-16T11:26:36.298Z,9.20
2022-12-16T11:29:30.678Z,9.37
2022-12-16T11:32:21.180Z,8.70
2022-12-16T11:35:12.184Z,10.10
2022-12-16T11:38:00.402Z,8.48
2022-12-16T11:40:47.370Z,8.20
2022-12-16T11:43:34.668Z,8.80
2022-12-16T11:46:23.405Z,9.40
2022-12-16T11:49:21.921Z,9.27
2022-12-16T11:52:35.942Z,9.50
2022-12-16T11:58:53.493Z,9.10
2022-12-16T12:01:45.724Z,8.67
2022-12-16T12:04:32.607Z,9.07
2022-12-16T12:07:26.447Z,8.60
2022-12-16T12:10:31.181Z,8.90
2022-12-16T12:13:21.241Z,8.47
2022-12-16T12:16:26.472Z,9.47
2022-12-16T12:19:32.061Z,10.60
2022-12-16T12:22:22.028Z,9.80
2022-12-16T12:25:22.273Z,11.20
2022-12-16T12:28:43.603Z,9.90
2022-12-16T12:31:49.678Z,9.23
2022-12-16T12:34:38.504Z,8.83
2022-12-16T12:37:40.679Z,8.83
2022-12-16T12:40:36.102Z,9.73
2022-12-16T12:43:24.557Z,11.60
2022-12-16T12:46:13.589Z,10.07
2022-12-16T12:49:17.558Z,9.67
2022-12-16T12:52:03.245Z,13.20
2022-12-16T12:55:01.039Z,9.33
2022-12-16T12:57:54.983Z,9.10
2022-12-16T13:00:43.503Z,9.53
2022-12-16T13:03:50.483Z,9.90
2022-12-16T13:06:37.597Z,9.07
2022-12-16T13:09:23.472Z,9.37
2022-12-16T13:12:32.417Z,9.40
2022-12-16T13:15:21.259Z,8.27
2022-12-16T13:18:19.121Z,9.37
2022-12-16T13:21:05.323Z,8.80
2022-12-16T13:23:55.714Z,9.23
2022-12-16T13:26:43.264Z,8.60
2022-12-16T13:29:41.035Z,8.63
2022-12-16T13:32:26.857Z,8.40
2022-12-16T13:35:24.018Z,9.00
2022-12-16T13:38:11.401Z,8.23
2022-12-16T13:41:09.524Z,9.43
2022-12-16T13:44:07.492Z,9.07
2022-12-16T13:47:04.012Z,9.63
2022-12-16T13:49:55.880Z,8.30
2022-12-16T13:52:46.081Z,9.33
2022-12-16T13:55:37.620Z,8.17
2022-12-16T13:58:25.670Z,9.37
2022-12-16T14:01:22.621Z,8.57
2022-12-16T14:04:10.376Z,9.80
2022-12-16T14:06:57.507Z,7.80
2022-12-16T14:09:54.589Z,8.43
2022-12-16T14:12:58.689Z,8.80
2022-12-16T14:15:47.578Z,8.10
2022-12-16T14:18:45.562Z,8.33
2022-12-16T14:21:35.299Z,7.93
2022-12-16T14:24:29.288Z,8.70
2022-12-16T14:27:15.278Z,9.00
2022-12-16T14:30:10.032Z,9.13
2022-12-16T14:32:56.124Z,8.50
2022-12-16T14:35:43.430Z,8.77
2022-12-16T14:39:01.489Z,8.37
2022-12-16T14:41:47.505Z,8.37
2022-12-16T14:44:38.053Z,9.37
2022-12-16T14:47:23.863Z,9.30
2022-12-16T14:50:11.767Z,9.17
2022-12-16T14:52:58.107Z,8.23
2022-12-16T14:55:52.194Z,9.83
2022-12-16T14:58:39.664Z,9.60
2022-12-16T15:01:33.191Z,9.60
2022-12-16T15:04:20.059Z,8.60
2022-12-16T15:07:07.519Z,8.77
2022-12-16T15:10:01.267Z,10.40
2022-12-16T15:12:48.667Z,8.80
2022-12-16T15:15:37.107Z,11.47
2022-12-16T15:18:23.508Z,9.27
2022-12-16T15:21:14.108Z,9.90
2022-12-16T15:24:01.541Z,10.60
2022-12-16T15:26:49.885Z,10.80
2022-12-16T15:29:52.854Z,9.43
2022-12-16T15:32:56.867Z,9.23
2022-12-16T15:35:45.817Z,9.20
2022-12-16T15:38:31.715Z,8.97
2022-12-16T15:41:17.559Z,9.70
2022-12-16T15:44:04.932Z,9.80
2022-12-16T15:46:51.415Z,8.83
2022-12-16T15:50:03.482Z,10.33
2022-12-16T15:52:50.433Z,9.90
2022-12-16T15:55:48.406Z,9.80
2022-12-16T15:58:54.409Z,9.37
2022-12-16T16:01:47.244Z,10.47
2022-12-16T16:04:38.739Z,9.00
2022-12-16T16:07:32.977Z,9.23
2022-12-16T16:10:41.779Z,9.87
2022-12-16T16:13:28.022Z,10.50
2022-12-16T16:16:14.504Z,10.30
2022-12-16T16:19:14.697Z,10.70
2022-12-16T16:22:00.901Z,9.20
2022-12-16T16:24:46.532Z,9.87
2022-12-16T16:27:33.494Z,10.23
2022-12-16T16:30:20.012Z,11.10
2022-12-16T16:33:05.734Z,10.37
2022-12-16T16:35:52.221Z,10.33
2022-12-16T16:38:38.021Z,12.97
2022-12-16T16:41:23.761Z,10.20
2022-12-16T16:44:10.570Z,10.38
2022-12-16T16:47:00.356Z,11.43
2022-12-16T16:49:50.645Z,11.13
2022-12-16T16:52:37.978Z,10.13
2022-12-16T16:55:24.680Z,10.20
2022-12-16T16:58:10.673Z,11.10
2022-12-16T17:00:56.701Z,10.40
2022-12-16T17:03:43.161Z,9.37
2022-12-16T17:06:29.578Z,8.17
2022-12-16T17:09:16.618Z,9.10
2022-12-16T17:12:02.494Z,9.00
2022-12-16T17:14:48.293Z,9.63
2022-12-16T17:17:34.419Z,9.73
2022-12-16T17:20:20.289Z,9.20
2022-12-16T17:23:06.746Z,9.43
2022-12-16T17:25:52.583Z,8.70
2022-12-16T17:28:38.457Z,9.80
2022-12-16T17:31:24.276Z,11.43
2022-12-16T17:34:10.099Z,9.03
2022-12-16T17:36:55.800Z,10.48
2022-12-16T17:39:41.905Z,9.10
2022-12-16T17:42:27.816Z,10.07
2022-12-16T17:45:13.513Z,9.40
2022-12-16T17:47:59.596Z,10.23
2022-12-16T17:50:45.397Z,10.37
2022-12-16T17:53:31.636Z,11.20
2022-12-16T17:56:22.269Z,10.43
2022-12-16T17:59:10.949Z,10.65
2022-12-16T18:01:57.432Z,12.00
2022-12-16T18:05:00.161Z,9.30
2022-12-16T18:07:46.075Z,9.93
2022-12-16T18:10:32.108Z,12.30
2022-12-16T18:13:18.273Z,12.25
2022-12-16T18:16:10.222Z,10.05
2022-12-16T18:18:56.228Z,11.35
2022-12-16T18:21:42.024Z,9.10
2022-12-16T18:24:28.480Z,9.77
2022-12-16T18:27:14.378Z,10.67
2022-12-16T18:30:00.529Z,9.90
2022-12-16T18:32:46.484Z,10.93
2022-12-16T18:35:32.403Z,10.60
2022-12-16T18:38:18.157Z,10.40
2022-12-16T18:41:04.097Z,9.13
2022-12-16T18:43:49.933Z,9.80
2022-12-16T18:46:35.821Z,11.70
2022-12-16T18:49:21.953Z,10.07
2022-12-16T18:52:07.836Z,11.10
2022-12-16T18:54:53.692Z,10.35
2022-12-16T18:57:39.954Z,10.47
2022-12-16T19:00:27.492Z,10.60
2022-12-16T19:03:13.672Z,10.87
2022-12-16T19:05:59.632Z,10.80
2022-12-16T19:08:45.502Z,10.00
2022-12-16T19:11:31.466Z,10.63
2022-12-16T19:14:17.137Z,11.17
2022-12-16T19:17:03.087Z,10.40
2022-12-16T19:19:48.917Z,11.43
2022-12-16T19:22:34.715Z,11.60
2022-12-16T19:25:21.713Z,11.60
2022-12-16T19:28:07.716Z,10.80
2022-12-16T19:30:53.869Z,10.23
2022-12-16T19:33:42.447Z,11.50
2022-12-16T19:36:28.287Z,10.23
2022-12-16T19:39:14.459Z,10.67
2022-12-16T19:42:00.201Z,13.23
2022-12-16T19:44:45.976Z,13.03
2022-12-16T19:47:31.841Z,9.87
2022-12-16T19:50:18.195Z,10.90
2022-12-16T19:53:04.115Z,11.43
2022-12-16T19:55:49.817Z,12.70
2022-12-16T19:58:39.297Z,9.32
2022-12-16T20:01:27.971Z,10.13
2022-12-16T20:04:14.240Z,10.30
2022-12-16T20:07:00.201Z,10.40
2022-12-16T20:09:46.647Z,11.32
2022-12-16T20:12:32.512Z,10.97
2022-12-16T20:15:18.427Z,9.00
2022-12-16T20:18:04.617Z,10.15
2022-12-16T20:20:52.321Z,10.67
2022-12-16T20:23:38.250Z,10.20
2022-12-16T20:26:24.259Z,9.87
2022-12-16T20:29:10.893Z,11.80
2022-12-16T20:32:07.626Z,11.70
2022-12-16T20:34:53.781Z,10.60
2022-12-16T20:37:39.460Z,11.60
2022-12-16T20:40:25.903Z,9.38
2022-12-16T20:43:11.733Z,10.50
2022-12-16T20:45:57.522Z,10.20
2022-12-16T20:48:46.434Z,11.40
2022-12-16T20:51:32.464Z,9.60
2022-12-16T20:54:18.254Z,9.70
2022-12-16T20:57:07.058Z,11.40
2022-12-16T20:59:58.195Z,11.27
2022-12-16T21:02:44.351Z,10.60
2022-12-16T21:05:30.179Z,10.50
2022-12-16T21:08:15.928Z,11.97
2022-12-16T21:11:01.971Z,10.05
2022-12-16T21:13:48.708Z,10.07
2022-12-16T21:16:35.291Z,10.00
2022-12-16T21:19:21.092Z,10.77
2022-12-16T21:22:06.790Z,9.23
2022-12-16T21:24:52.489Z,10.53
2022-12-16T21:27:39.148Z,11.40
2022-12-16T21:30:25.359Z,10.40
2022-12-16T21:33:11.295Z,10.40
2022-12-16T21:35:57.103Z,10.90
2022-12-16T21:38:42.916Z,10.47
2022-12-16T21:41:28.792Z,11.07
2022-12-16T21:44:25.087Z,12.65
2022-12-16T21:47:10.930Z,11.17
2022-12-16T21:49:56.942Z,13.03
2022-12-16T21:52:42.848Z,10.73
2022-12-16T21:55:28.637Z,10.88
2022-12-16T21:58:14.464Z,11.03
2022-12-16T22:01:00.841Z,10.95
2022-12-16T22:03:52.794Z,9.73
2022-12-16T22:06:44.230Z,10.13
2022-12-16T22:09:32.762Z,12.40
2022-12-16T22:12:18.708Z,11.32
2022-12-16T22:15:04.591Z,11.68
2022-12-16T22:17:57.681Z,10.77
2022-12-16T22:20:44.380Z,11.75
2022-12-16T22:23:30.353Z,11.25
2022-12-16T22:26:16.777Z,11.73
2022-12-16T22:29:02.730Z,10.38
2022-12-16T22:31:48.572Z,10.60
2022-12-16T22:34:34.295Z,11.30
2022-12-16T22:37:20.185Z,11.40
2022-12-16T22:40:05.972Z,10.60
2022-12-16T22:42:52.043Z,10.50
2022-12-16T22:45:37.967Z,12.95
2022-12-16T22:48:24.941Z,12.25
2022-12-16T22:51:10.623Z,11.35
2022-12-16T22:53:56.561Z,12.25
2022-12-16T22:56:42.349Z,13.80
2022-12-16T22:59:28.321Z,13.97
2022-12-16T23:02:14.139Z,11.87
2022-12-16T23:05:00.165Z,11.83
2022-12-16T23:07:46.429Z,11.55
2022-12-16T23:10:32.552Z,11.95
2022-12-16T23:13:18.795Z,12.05
2022-12-16T23:16:05.529Z,12.23
2022-12-16T23:18:52.032Z,12.52
2022-12-16T23:21:38.556Z,12.55
2022-12-16T23:24:25.256Z,11.93
2022-12-16T23:27:11.297Z,12.00
2022-12-16T23:29:57.468Z,11.85
2022-12-16T23:32:44.153Z,13.02
2022-12-16T23:35:30.670Z,13.15
2022-12-16T23:38:20.825Z,11.88
2022-12-16T23:41:07.470Z,13.35
2022-12-16T23:43:56.285Z,15.55
2022-12-16T23:46:42.389Z,12.40
2022-12-16T23:49:28.573Z,12.18
2022-12-16T23:52:14.914Z,12.68
2022-12-16T23:55:01.038Z,12.43
2022-12-16T23:57:47.046Z,14.30
